sensor_id;sensor_type;location;lat;lon;timestamp;pressure;altitude;pressure_sealevel;temperature;humidity
3122;BME280;1571;52.524;14.104;2023-01-31T00:00:05;100705.19;;;3.80;78.00
3122;BME280;1571;52.524;14.104;2023-01-31T00:02:34;100701.00;;;3.76;78.19
3122;BME280;1571;52.524;14.104;2023-01-31T00:05:02;100717.97;;;3.66;78.56
3122;BME280;1571;52.524;14.104;2023-01-31T00:07:31;100711.00;;;3.65;78.79
3122;BME280;1571;52.524;14.104;2023-01-31T00:09:59;100717.97;;;3.66;79.04
3122;BME280;1571;52.524;14.104;2023-01-31T00:12:27;100721.00;;;3.53;79.35
3122;BME280;1571;52.524;14.104;2023-01-31T00:14:56;100706.84;;;3.58;79.32
3122;BME280;1571;52.524;14.104;2023-01-31T00:17:26;100699.69;;;3.63;79.47
3122;BME280;1571;52.524;14.104;2023-01-31T00:19:54;100707.00;;;3.53;79.59
3122;BME280;1571;52.524;14.104;2023-01-31T00:22:22;100724.00;;;3.43;79.85
3122;BME280;1571;52.524;14.104;2023-01-31T00:24:50;100716.16;;;3.41;80.25
3122;BME280;1571;52.524;14.104;2023-01-31T00:27:18;100713.50;;;3.43;80.31
3122;BME280;1571;52.524;14.104;2023-01-31T00:29:46;100709.09;;;3.43;80.15
3122;BME280;1571;52.524;14.104;2023-01-31T00:32:17;100724.00;;;3.43;80.26
3122;BME280;1571;52.524;14.104;2023-01-31T00:34:45;100727.72;;;3.36;80.54
3122;BME280;1571;52.524;14.104;2023-01-31T00:37:13;100724.06;;;3.40;80.36
3122;BME280;1571;52.524;14.104;2023-01-31T00:39:41;100729.47;;;3.35;80.71
3122;BME280;1571;52.524;14.104;2023-01-31T00:42:10;100746.50;;;3.22;81.10
3122;BME280;1571;52.524;14.104;2023-01-31T00:44:40;100734.97;;;3.27;81.47
3122;BME280;1571;52.524;14.104;2023-01-31T00:47:08;100748.25;;;3.23;81.63
3122;BME280;1571;52.524;14.104;2023-01-31T00:49:38;100751.88;;;3.19;81.72
3122;BME280;1571;52.524;14.104;2023-01-31T00:52:06;100756.41;;;3.13;81.96
3122;BME280;1571;52.524;14.104;2023-01-31T00:54:34;100752.78;;;3.18;81.89
3122;BME280;1571;52.524;14.104;2023-01-31T00:57:03;100774.09;;;3.07;82.28
3122;BME280;1571;52.524;14.104;2023-01-31T00:59:31;100757.28;;;3.14;82.29
3122;BME280;1571;52.524;14.104;2023-01-31T01:02:00;100767.91;;;3.09;82.29
3122;BME280;1571;52.524;14.104;2023-01-31T01:04:29;100775.13;;;3.01;82.57
3122;BME280;1571;52.524;14.104;2023-01-31T01:06:59;100777.63;;;3.06;82.81
3122;BME280;1571;52.524;14.104;2023-01-31T01:09:27;100775.06;;;3.04;82.89
3122;BME280;1571;52.524;14.104;2023-01-31T01:11:56;100776.88;;;3.02;82.79
3122;BME280;1571;52.524;14.104;2023-01-31T01:14:24;100775.13;;;3.01;82.96
3122;BME280;1571;52.524;14.104;2023-01-31T01:16:52;100768.34;;;2.96;83.04
3122;BME280;1571;52.524;14.104;2023-01-31T01:19:24;100776.19;;;2.96;83.24
3122;BME280;1571;52.524;14.104;2023-01-31T01:21:54;100775.34;;;2.95;83.47
3122;BME280;1571;52.524;14.104;2023-01-31T01:24:23;100791.88;;;2.97;83.81
3122;BME280;1571;52.524;14.104;2023-01-31T01:26:53;100795.31;;;2.99;83.62
3122;BME280;1571;52.524;14.104;2023-01-31T01:29:21;100806.13;;;2.88;83.63
3122;BME280;1571;52.524;14.104;2023-01-31T01:31:49;100799.72;;;2.97;83.27
3122;BME280;1571;52.524;14.104;2023-01-31T01:34:18;100800.63;;;2.98;83.04
3122;BME280;1571;52.524;14.104;2023-01-31T01:36:46;100792.69;;;2.99;82.77
3122;BME280;1571;52.524;14.104;2023-01-31T01:39:15;100798.13;;;2.93;82.81
3122;BME280;1571;52.524;14.104;2023-01-31T01:41:46;100803.66;;;2.84;83.16
3122;BME280;1571;52.524;14.104;2023-01-31T01:44:42;100800.16;;;2.83;83.65
3122;BME280;1571;52.524;14.104;2023-01-31T01:47:14;100807.88;;;2.88;83.56
3122;BME280;1571;52.524;14.104;2023-01-31T01:49:46;100810.50;;;2.88;83.74
3122;BME280;1571;52.524;14.104;2023-01-31T01:52:16;100806.34;;;2.81;83.94
3122;BME280;1571;52.524;14.104;2023-01-31T01:54:47;100810.06;;;2.74;84.18
3122;BME280;1571;52.524;14.104;2023-01-31T01:57:21;100802.34;;;2.67;84.40
3122;BME280;1571;52.524;14.104;2023-01-31T01:59:54;100812.84;;;2.67;84.61
3122;BME280;1571;52.524;14.104;2023-01-31T02:02:26;100804.16;;;2.65;84.47
3122;BME280;1571;52.524;14.104;2023-01-31T02:04:55;100814.59;;;2.68;84.39
3122;BME280;1571;52.524;14.104;2023-01-31T02:07:23;100811.22;;;2.63;84.48
3122;BME280;1571;52.524;14.104;2023-01-31T02:09:57;100815.66;;;2.61;84.57
3122;BME280;1571;52.524;14.104;2023-01-31T02:12:30;100825.22;;;2.62;84.63
3122;BME280;1571;52.524;14.104;2023-01-31T02:15:00;100833.00;;;2.65;84.56
3122;BME280;1571;52.524;14.104;2023-01-31T02:17:28;100836.41;;;2.69;84.48
3122;BME280;1571;52.524;14.104;2023-01-31T02:20:05;100845.13;;;2.69;84.15
3122;BME280;1571;52.524;14.104;2023-01-31T02:22:40;100855.56;;;2.71;84.08
3122;BME280;1571;52.524;14.104;2023-01-31T02:25:55;100852.72;;;2.79;84.03
3122;BME280;1571;52.524;14.104;2023-01-31T02:31:53;100851.75;;;2.83;83.59
3122;BME280;1571;52.524;14.104;2023-01-31T02:34:33;100850.75;;;2.87;83.45
3122;BME280;1571;52.524;14.104;2023-01-31T02:37:14;100861.94;;;2.94;83.17
3122;BME280;1571;52.524;14.104;2023-01-31T02:39:52;100860.31;;;2.88;83.10
3122;BME280;1571;52.524;14.104;2023-01-31T02:42:32;100867.28;;;2.90;83.24
3122;BME280;1571;52.524;14.104;2023-01-31T02:45:08;100864.75;;;2.86;83.53
3122;BME280;1571;52.524;14.104;2023-01-31T02:47:46;100864.09;;;2.79;83.69
3122;BME280;1571;52.524;14.104;2023-01-31T02:50:23;100867.91;;;2.67;84.25
3122;BME280;1571;52.524;14.104;2023-01-31T02:52:57;100875.75;;;2.67;84.41
3122;BME280;1571;52.524;14.104;2023-01-31T02:55:35;100868.19;;;2.57;85.06
3122;BME280;1571;52.524;14.104;2023-01-31T02:58:24;100877.13;;;2.49;85.51
3122;BME280;1571;52.524;14.104;2023-01-31T03:00:56;100875.94;;;2.61;85.46
3122;BME280;1571;52.524;14.104;2023-01-31T03:03:27;100868.97;;;2.60;85.59
3122;BME280;1571;52.524;14.104;2023-01-31T03:06:11;100860.44;;;2.52;85.70
3122;BME280;1571;52.524;14.104;2023-01-31T03:09:07;100868.28;;;2.54;85.72
3122;BME280;1571;52.524;14.104;2023-01-31T03:11:41;100866.75;;;2.45;86.04
3122;BME280;1571;52.524;14.104;2023-01-31T03:14:17;100875.53;;;2.44;86.13
3122;BME280;1571;52.524;14.104;2023-01-31T03:16:53;100866.84;;;2.42;86.29
3122;BME280;1571;52.524;14.104;2023-01-31T03:19:47;100874.69;;;2.43;86.30
3122;BME280;1571;52.524;14.104;2023-01-31T03:22:23;100886.75;;;2.49;86.47
3122;BME280;1571;52.524;14.104;2023-01-31T03:24:55;100888.47;;;2.50;86.55
3122;BME280;1571;52.524;14.104;2023-01-31T03:27:26;100907.88;;;2.43;86.61
3122;BME280;1571;52.524;14.104;2023-01-31T03:29:59;100904.38;;;2.44;86.80
3122;BME280;1571;52.524;14.104;2023-01-31T03:32:32;100911.56;;;2.36;87.18
3122;BME280;1571;52.524;14.104;2023-01-31T03:35:05;100904.50;;;2.38;87.36
3122;BME280;1571;52.524;14.104;2023-01-31T03:37:38;100923.59;;;2.43;87.25
3122;BME280;1571;52.524;14.104;2023-01-31T03:40:16;100920.56;;;2.58;87.26
3122;BME280;1571;52.524;14.104;2023-01-31T03:42:52;100926.84;;;2.53;87.04
3122;BME280;1571;52.524;14.104;2023-01-31T03:45:27;100932.22;;;2.48;87.06
3122;BME280;1571;52.524;14.104;2023-01-31T03:48:00;100936.41;;;2.54;87.12
3122;BME280;1571;52.524;14.104;2023-01-31T03:50:40;100942.59;;;2.51;87.17
3122;BME280;1571;52.524;14.104;2023-01-31T03:53:13;100967.88;;;2.54;87.43
3122;BME280;1571;52.524;14.104;2023-01-31T03:55:48;100966.16;;;2.53;87.37
3122;BME280;1571;52.524;14.104;2023-01-31T03:58:21;100967.03;;;2.53;87.49
3122;BME280;1571;52.524;14.104;2023-01-31T04:00:51;100970.47;;;2.55;87.45
3122;BME280;1571;52.524;14.104;2023-01-31T04:03:23;100969.63;;;2.53;87.79
3122;BME280;1571;52.524;14.104;2023-01-31T04:05:54;100980.34;;;2.44;87.82
3122;BME280;1571;52.524;14.104;2023-01-31T04:08:23;100966.28;;;2.48;87.88
3122;BME280;1571;52.524;14.104;2023-01-31T04:11:02;100982.97;;;2.44;88.18
3122;BME280;1571;52.524;14.104;2023-01-31T04:13:31;100982.97;;;2.44;88.28
3122;BME280;1571;52.524;14.104;2023-01-31T04:15:59;100982.91;;;2.45;88.26
3122;BME280;1571;52.524;14.104;2023-01-31T04:18:27;100989.16;;;2.41;88.73
3122;BME280;1571;52.524;14.104;2023-01-31T04:20:56;100985.75;;;2.38;88.79
3122;BME280;1571;52.524;14.104;2023-01-31T04:23:24;100978.50;;;2.47;88.86
3122;BME280;1571;52.524;14.104;2023-01-31T04:25:53;100987.25;;;2.48;88.83
3122;BME280;1571;52.524;14.104;2023-01-31T04:28:22;100993.47;;;2.44;89.02
3122;BME280;1571;52.524;14.104;2023-01-31T04:30:52;100992.28;;;2.56;88.90
3122;BME280;1571;52.524;14.104;2023-01-31T04:33:21;100995.03;;;2.51;89.17
3122;BME280;1571;52.524;14.104;2023-01-31T04:35:50;100993.13;;;2.56;89.01
3122;BME280;1571;52.524;14.104;2023-01-31T04:38:18;100990.38;;;2.62;88.92
3122;BME280;1571;52.524;14.104;2023-01-31T04:40:46;101000.13;;;2.57;88.96
3122;BME280;1571;52.524;14.104;2023-01-31T04:43:14;100998.47;;;2.53;88.96
3122;BME280;1571;52.524;14.104;2023-01-31T04:45:44;100994.94;;;2.54;89.30
3122;BME280;1571;52.524;14.104;2023-01-31T04:48:12;100998.50;;;2.52;89.25
3122;BME280;1571;52.524;14.104;2023-01-31T04:50:40;100995.84;;;2.53;89.35
3122;BME280;1571;52.524;14.104;2023-01-31T04:53:09;101006.34;;;2.52;89.63
3122;BME280;1571;52.524;14.104;2023-01-31T04:55:37;100998.47;;;2.53;89.37
3122;BME280;1571;52.524;14.104;2023-01-31T04:58:05;101009.03;;;2.50;89.66
3122;BME280;1571;52.524;14.104;2023-01-31T05:00:33;101010.75;;;2.51;89.60
3122;BME280;1571;52.524;14.104;2023-01-31T05:03:03;101021.34;;;2.46;89.89
3122;BME280;1571;52.524;14.104;2023-01-31T05:05:32;101021.38;;;2.45;90.01
3122;BME280;1571;52.524;14.104;2023-01-31T05:08:02;101010.00;;;2.46;90.14
3122;BME280;1571;52.524;14.104;2023-01-31T05:10:33;101026.84;;;2.36;90.57
3122;BME280;1571;52.524;14.104;2023-01-31T05:13:02;101015.50;;;2.35;90.60
3122;BME280;1571;52.524;14.104;2023-01-31T05:15:30;101019.19;;;2.26;91.02
3122;BME280;1571;52.524;14.104;2023-01-31T05:17:59;101021.94;;;2.22;91.34
3122;BME280;1571;52.524;14.104;2023-01-31T05:20:33;101016.81;;;2.16;91.74
3122;BME280;1571;52.524;14.104;2023-01-31T05:23:04;101025.69;;;2.10;92.04
3122;BME280;1571;52.524;14.104;2023-01-31T05:25:34;101017.03;;;2.06;92.22
3122;BME280;1571;52.524;14.104;2023-01-31T05:28:03;101015.44;;;2.01;92.58
3122;BME280;1571;52.524;14.104;2023-01-31T05:30:31;101013.78;;;1.97;92.86
3122;BME280;1571;52.524;14.104;2023-01-31T05:33:00;101023.63;;;1.85;93.36
3122;BME280;1571;52.524;14.104;2023-01-31T05:35:28;101024.41;;;1.89;93.63
3122;BME280;1571;52.524;14.104;2023-01-31T05:37:58;101000.72;;;1.95;93.82
3122;BME280;1571;52.524;14.104;2023-01-31T05:40:26;101008.63;;;1.94;93.72
3122;BME280;1571;52.524;14.104;2023-01-31T05:42:55;101015.66;;;1.92;93.83
3122;BME280;1571;52.524;14.104;2023-01-31T05:45:24;101016.63;;;1.86;94.25
3122;BME280;1571;52.524;14.104;2023-01-31T05:47:53;101023.41;;;1.95;94.30
3122;BME280;1571;52.524;14.104;2023-01-31T05:50:21;101018.88;;;2.03;94.36
3122;BME280;1571;52.524;14.104;2023-01-31T05:52:50;101011.84;;;2.05;94.33
3122;BME280;1571;52.524;14.104;2023-01-31T05:55:20;101023.19;;;2.05;94.52
3122;BME280;1571;52.524;14.104;2023-01-31T05:57:48;101014.56;;;2.00;94.53
3122;BME280;1571;52.524;14.104;2023-01-31T06:00:17;101017.38;;;1.91;95.03
3122;BME280;1571;52.524;14.104;2023-01-31T06:02:46;101028.66;;;1.95;95.23
3122;BME280;1571;52.524;14.104;2023-01-31T06:05:15;101022.59;;;1.93;95.45
3122;BME280;1571;52.524;14.104;2023-01-31T06:07:43;101038.31;;;1.93;95.53
3122;BME280;1571;52.524;14.104;2023-01-31T06:10:12;101036.38;;;2.01;95.84
3122;BME280;1571;52.524;14.104;2023-01-31T06:12:42;101024.25;;;1.97;95.79
3122;BME280;1571;52.524;14.104;2023-01-31T06:15:10;101033.81;;;1.98;95.98
3122;BME280;1571;52.524;14.104;2023-01-31T06:17:39;101036.22;;;2.07;96.03
3122;BME280;1571;52.524;14.104;2023-01-31T06:20:08;101046.31;;;2.25;96.37
3122;BME280;1571;52.524;14.104;2023-01-31T06:22:36;101041.94;;;2.24;96.09
3122;BME280;1571;52.524;14.104;2023-01-31T06:25:05;101048.31;;;2.14;96.05
3122;BME280;1571;52.524;14.104;2023-01-31T06:27:34;101046.66;;;2.10;96.27
3122;BME280;1571;52.524;14.104;2023-01-31T06:30:04;101042.16;;;2.15;96.15
3122;BME280;1571;52.524;14.104;2023-01-31T06:32:32;101051.56;;;2.25;96.16
3122;BME280;1571;52.524;14.104;2023-01-31T06:35:00;101053.25;;;2.26;96.33
3122;BME280;1571;52.524;14.104;2023-01-31T06:37:29;101056.72;;;2.27;96.08
3122;BME280;1571;52.524;14.104;2023-01-31T06:39:57;101053.06;;;2.34;96.16
3122;BME280;1571;52.524;14.104;2023-01-31T06:42:26;101065.31;;;2.34;96.15
3122;BME280;1571;52.524;14.104;2023-01-31T06:44:54;101060.06;;;2.34;96.48
3122;BME280;1571;52.524;14.104;2023-01-31T06:47:23;101072.28;;;2.35;96.60
3122;BME280;1571;52.524;14.104;2023-01-31T06:49:52;101070.34;;;2.43;96.60
3122;BME280;1571;52.524;14.104;2023-01-31T06:52:20;101077.44;;;2.38;96.64
3122;BME280;1571;52.524;14.104;2023-01-31T06:54:48;101070.13;;;2.52;96.78
3122;BME280;1571;52.524;14.104;2023-01-31T06:57:16;101063.03;;;2.57;96.70
3122;BME280;1571;52.524;14.104;2023-01-31T06:59:45;101073.69;;;2.49;97.27
3122;BME280;1571;52.524;14.104;2023-01-31T07:02:13;101079.41;;;2.65;97.30
3122;BME280;1571;52.524;14.104;2023-01-31T07:04:43;101065.47;;;2.63;97.23
3122;BME280;1571;52.524;14.104;2023-01-31T07:07:12;101067.97;;;2.69;97.20
3122;BME280;1571;52.524;14.104;2023-01-31T07:09:40;101062.53;;;2.77;97.08
3122;BME280;1571;52.524;14.104;2023-01-31T07:12:08;101069.47;;;2.80;96.78
3122;BME280;1571;52.524;14.104;2023-01-31T07:14:36;101058.88;;;2.83;96.74
3122;BME280;1571;52.524;14.104;2023-01-31T07:17:05;101067.44;;;2.91;96.51
3122;BME280;1571;52.524;14.104;2023-01-31T07:19:33;101053.47;;;2.90;96.53
3122;BME280;1571;52.524;14.104;2023-01-31T07:22:02;101063.00;;;2.93;96.16
3122;BME280;1571;52.524;14.104;2023-01-31T07:24:30;101056.66;;;3.02;96.10
3122;BME280;1571;52.524;14.104;2023-01-31T07:26:59;101049.81;;;2.96;95.92
3122;BME280;1571;52.524;14.104;2023-01-31T07:29:27;101059.97;;;3.08;95.82
3122;BME280;1571;52.524;14.104;2023-01-31T07:31:56;101055.38;;;3.17;95.36
3122;BME280;1571;52.524;14.104;2023-01-31T07:34:24;101059.06;;;3.11;95.25
3122;BME280;1571;52.524;14.104;2023-01-31T07:36:52;101052.00;;;3.13;95.01
3122;BME280;1571;52.524;14.104;2023-01-31T07:39:22;101042.19;;;3.20;94.62
3122;BME280;1571;52.524;14.104;2023-01-31T07:41:50;101056.22;;;3.19;94.68
3122;BME280;1571;52.524;14.104;2023-01-31T07:44:23;101047.28;;;3.26;94.40
3122;BME280;1571;52.524;14.104;2023-01-31T07:46:51;101063.81;;;3.29;94.33
3122;BME280;1571;52.524;14.104;2023-01-31T07:49:20;101061.06;;;3.34;94.29
3122;BME280;1571;52.524;14.104;2023-01-31T07:51:49;101058.03;;;3.48;93.96
3122;BME280;1571;52.524;14.104;2023-01-31T07:54:17;101059.16;;;3.39;94.07
3122;BME280;1571;52.524;14.104;2023-01-31T07:56:47;101063.41;;;3.43;94.04
3122;BME280;1571;52.524;14.104;2023-01-31T07:59:15;101057.25;;;3.44;94.12
3122;BME280;1571;52.524;14.104;2023-01-31T08:01:44;101055.38;;;3.49;94.07
3122;BME280;1571;52.524;14.104;2023-01-31T08:04:29;101071.81;;;3.56;93.92
3122;BME280;1571;52.524;14.104;2023-01-31T08:06:58;101072.69;;;3.57;93.91
3122;BME280;1571;52.524;14.104;2023-01-31T08:09:28;101074.47;;;3.54;94.20
3122;BME280;1571;52.524;14.104;2023-01-31T08:11:59;101075.31;;;3.57;94.47
3122;BME280;1571;52.524;14.104;2023-01-31T08:14:27;101069.22;;;3.54;94.58
3122;BME280;1571;52.524;14.104;2023-01-31T08:16:55;101081.53;;;3.52;94.70
3122;BME280;1571;52.524;14.104;2023-01-31T08:19:23;101071.03;;;3.52;94.90
3122;BME280;1571;52.524;14.104;2023-01-31T08:21:52;101072.69;;;3.57;95.16
3122;BME280;1571;52.524;14.104;2023-01-31T08:24:20;101070.78;;;3.62;95.35
3122;BME280;1571;52.524;14.104;2023-01-31T08:26:49;101072.50;;;3.63;95.17
3122;BME280;1571;52.524;14.104;2023-01-31T08:29:18;101067.44;;;3.57;95.63
3122;BME280;1571;52.524;14.104;2023-01-31T08:31:47;101064.13;;;3.50;95.90
3122;BME280;1571;52.524;14.104;2023-01-31T08:34:18;101071.63;;;3.62;96.26
3122;BME280;1571;52.524;14.104;2023-01-31T08:36:47;101066.44;;;3.61;96.68
3122;BME280;1571;52.524;14.104;2023-01-31T08:39:16;101078.88;;;3.54;97.46
3122;BME280;1571;52.524;14.104;2023-01-31T08:41:44;101070.06;;;3.57;98.56
3122;BME280;1571;52.524;14.104;2023-01-31T08:44:13;101070.91;;;3.57;99.33
3122;BME280;1571;52.524;14.104;2023-01-31T08:46:43;101060.69;;;3.46;100.00
3122;BME280;1571;52.524;14.104;2023-01-31T08:49:12;101062.69;;;3.38;100.00
3122;BME280;1571;52.524;14.104;2023-01-31T08:51:41;101056.91;;;3.25;100.00
3122;BME280;1571;52.524;14.104;2023-01-31T08:54:09;101060.72;;;3.13;100.00
3122;BME280;1571;52.524;14.104;2023-01-31T08:56:38;101056.38;;;3.12;100.00
3122;BME280;1571;52.524;14.104;2023-01-31T08:59:07;101049.38;;;3.13;100.00
3122;BME280;1571;52.524;14.104;2023-01-31T09:01:35;101050.97;;;3.19;100.00
3122;BME280;1571;52.524;14.104;2023-01-31T09:04:05;101048.34;;;3.19;100.00
3122;BME280;1571;52.524;14.104;2023-01-31T09:06:35;101058.09;;;3.13;100.00
3122;BME280;1571;52.524;14.104;2023-01-31T09:09:03;101046.53;;;3.21;100.00
3122;BME280;1571;52.524;14.104;2023-01-31T09:11:31;101047.53;;;3.17;100.00
3122;BME280;1571;52.524;14.104;2023-01-31T09:14:02;101044.16;;;3.11;100.00
3122;BME280;1571;52.524;14.104;2023-01-31T09:16:30;101040.97;;;3.00;100.00
3122;BME280;1571;52.524;14.104;2023-01-31T09:18:58;101051.13;;;3.12;100.00
3122;BME280;1571;52.524;14.104;2023-01-31T09:21:28;101041.44;;;3.15;100.00
3122;BME280;1571;52.524;14.104;2023-01-31T09:23:59;101045.47;;;3.28;100.00
3122;BME280;1571;52.524;14.104;2023-01-31T09:26:30;101039.63;;;3.18;100.00
3122;BME280;1571;52.524;14.104;2023-01-31T09:28:59;101042.13;;;3.23;100.00
3122;BME280;1571;52.524;14.104;2023-01-31T09:31:27;101042.28;;;3.17;100.00
3122;BME280;1571;52.524;14.104;2023-01-31T09:33:56;101035.31;;;3.16;100.00
3122;BME280;1571;52.524;14.104;2023-01-31T09:36:25;101043.75;;;3.27;100.00
3122;BME280;1571;52.524;14.104;2023-01-31T09:38:55;101033.06;;;3.33;100.00
3122;BME280;1571;52.524;14.104;2023-01-31T09:41:28;101029.81;;;3.25;100.00
3122;BME280;1571;52.524;14.104;2023-01-31T09:44:00;101029.81;;;3.25;100.00
3122;BME280;1571;52.524;14.104;2023-01-31T09:46:35;101029.72;;;3.28;100.00
3122;BME280;1571;52.524;14.104;2023-01-31T09:49:07;101028.88;;;3.27;100.00
3122;BME280;1571;52.524;14.104;2023-01-31T09:51:38;101023.47;;;3.33;100.00
3122;BME280;1571;52.524;14.104;2023-01-31T09:54:17;101020.59;;;3.41;100.00
3122;BME280;1571;52.524;14.104;2023-01-31T09:56:53;101012.59;;;3.46;100.00
3122;BME280;1571;52.524;14.104;2023-01-31T09:59:33;101002.69;;;3.55;100.00
3122;BME280;1571;52.524;14.104;2023-01-31T10:02:15;101006.13;;;3.58;100.00
3122;BME280;1571;52.524;14.104;2023-01-31T10:05:00;101001.53;;;3.66;100.00
3122;BME280;1571;52.524;14.104;2023-01-31T10:07:33;100994.22;;;3.75;100.00
3122;BME280;1571;52.524;14.104;2023-01-31T10:10:11;100990.03;;;3.70;100.00
3122;BME280;1571;52.524;14.104;2023-01-31T10:12:46;100978.03;;;3.61;100.00
3122;BME280;1571;52.524;14.104;2023-01-31T10:15:21;100978.84;;;3.63;100.00
3122;BME280;1571;52.524;14.104;2023-01-31T10:17:56;100969.03;;;3.70;100.00
3122;BME280;1571;52.524;14.104;2023-01-31T10:20:32;100969.03;;;3.70;100.00
3122;BME280;1571;52.524;14.104;2023-01-31T10:23:06;100969.09;;;3.67;100.00
3122;BME280;1571;52.524;14.104;2023-01-31T10:25:47;100967.91;;;3.77;100.00
3122;BME280;1571;52.524;14.104;2023-01-31T10:28:20;100966.56;;;3.64;100.00
3122;BME280;1571;52.524;14.104;2023-01-31T10:30:55;100956.72;;;3.72;100.00
3122;BME280;1571;52.524;14.104;2023-01-31T10:33:33;100943.63;;;3.70;100.00
3122;BME280;1571;52.524;14.104;2023-01-31T10:36:10;100944.72;;;3.63;100.00
3122;BME280;1571;52.524;14.104;2023-01-31T10:38:51;100932.63;;;3.86;100.00
3122;BME280;1571;52.524;14.104;2023-01-31T10:41:30;100939.53;;;3.90;100.00
3122;BME280;1571;52.524;14.104;2023-01-31T10:44:06;100924.44;;;3.96;100.00
3122;BME280;1571;52.524;14.104;2023-01-31T10:46:37;100919.41;;;3.89;100.00
3122;BME280;1571;52.524;14.104;2023-01-31T10:49:07;100914.91;;;3.92;100.00
3122;BME280;1571;52.524;14.104;2023-01-31T10:51:48;100905.06;;;3.99;100.00
3122;BME280;1571;52.524;14.104;2023-01-31T10:54:34;100904.81;;;4.07;100.00
3122;BME280;1571;52.524;14.104;2023-01-31T10:57:09;100897.44;;;4.18;100.00
3122;BME280;1571;52.524;14.104;2023-01-31T10:59:40;100884.22;;;4.21;100.00
3122;BME280;1571;52.524;14.104;2023-01-31T11:02:18;100893.94;;;4.17;100.00
3122;BME280;1571;52.524;14.104;2023-01-31T11:04:49;100878.03;;;4.22;100.00
3122;BME280;1571;52.524;14.104;2023-01-31T11:07:18;100862.25;;;4.22;100.00
3122;BME280;1571;52.524;14.104;2023-01-31T11:09:48;100861.25;;;4.26;100.00
3122;BME280;1571;52.524;14.104;2023-01-31T11:12:38;100852.09;;;4.11;100.00
3122;BME280;1571;52.524;14.104;2023-01-31T11:15:14;100847.00;;;4.07;100.00
3122;BME280;1571;52.524;14.104;2023-01-31T11:17:44;100853.75;;;4.14;100.00
3122;BME280;1571;52.524;14.104;2023-01-31T11:20:24;100847.66;;;4.13;100.00
3122;BME280;1571;52.524;14.104;2023-01-31T11:22:54;100845.31;;;4.06;100.00
3122;BME280;1571;52.524;14.104;2023-01-31T11:25:24;100841.06;;;4.02;100.00
3122;BME280;1571;52.524;14.104;2023-01-31T11:27:57;100834.69;;;4.09;100.00
3122;BME280;1571;52.524;14.104;2023-01-31T11:30:27;100829.94;;;3.93;100.00
3122;BME280;1571;52.524;14.104;2023-01-31T11:32:57;100806.56;;;3.86;100.00
3122;BME280;1571;52.524;14.104;2023-01-31T11:35:27;100797.13;;;4.05;100.00
3122;BME280;1571;52.524;14.104;2023-01-31T11:37:57;100793.66;;;4.05;100.00
3122;BME280;1571;52.524;14.104;2023-01-31T11:40:28;100774.94;;;4.14;100.00
3122;BME280;1571;52.524;14.104;2023-01-31T11:43:00;100774.84;;;4.17;100.00
3122;BME280;1571;52.524;14.104;2023-01-31T11:45:29;100772.75;;;4.27;100.00
3122;BME280;1571;52.524;14.104;2023-01-31T11:48:05;100762.84;;;4.10;100.00
3122;BME280;1571;52.524;14.104;2023-01-31T11:50:37;100763.41;;;4.18;100.00
3122;BME280;1571;52.524;14.104;2023-01-31T11:53:15;100759.41;;;4.08;100.00
3122;BME280;1571;52.524;14.104;2023-01-31T11:55:45;100745.31;;;4.10;100.00
3122;BME280;1571;52.524;14.104;2023-01-31T11:58:19;100749.38;;;4.19;100.00
3122;BME280;1571;52.524;14.104;2023-01-31T12:00:53;100746.81;;;4.17;100.00
3122;BME280;1571;52.524;14.104;2023-01-31T12:03:24;100736.47;;;4.13;100.00
3122;BME280;1571;52.524;14.104;2023-01-31T12:05:59;100742.59;;;4.12;100.00
3122;BME280;1571;52.524;14.104;2023-01-31T12:08:29;100734.25;;;4.01;100.00
3122;BME280;1571;52.524;14.104;2023-01-31T12:10:58;100719.41;;;4.00;100.00
3122;BME280;1571;52.524;14.104;2023-01-31T12:13:28;100710.19;;;4.13;100.00
3122;BME280;1571;52.524;14.104;2023-01-31T12:15:58;100703.78;;;3.96;100.00
3122;BME280;1571;52.524;14.104;2023-01-31T12:18:44;100704.16;;;4.09;100.00
3122;BME280;1571;52.524;14.104;2023-01-31T12:21:27;100709.25;;;4.14;100.00
3122;BME280;1571;52.524;14.104;2023-01-31T12:24:05;100706.25;;;4.25;100.00
3122;BME280;1571;52.524;14.104;2023-01-31T12:26:42;100683.44;;;4.25;100.00
3122;BME280;1571;52.524;14.104;2023-01-31T12:29:23;100659.63;;;4.30;100.00
3122;BME280;1571;52.524;14.104;2023-01-31T12:32:08;100663.56;;;4.42;100.00
3122;BME280;1571;52.524;14.104;2023-01-31T12:35:03;100663.63;;;4.40;100.00
3122;BME280;1571;52.524;14.104;2023-01-31T12:37:44;100653.59;;;4.50;100.00
3122;BME280;1571;52.524;14.104;2023-01-31T12:40:26;100649.63;;;4.40;100.00
3122;BME280;1571;52.524;14.104;2023-01-31T12:42:58;100645.00;;;4.46;100.00
3122;BME280;1571;52.524;14.104;2023-01-31T12:45:44;100639.47;;;4.30;100.00
3122;BME280;1571;52.524;14.104;2023-01-31T12:48:24;100635.13;;;4.29;100.00
3122;BME280;1571;52.524;14.104;2023-01-31T12:51:01;100629.84;;;4.29;100.00
3122;BME280;1571;52.524;14.104;2023-01-31T12:53:45;100630.25;;;4.18;100.00
3122;BME280;1571;52.524;14.104;2023-01-31T12:56:29;100629.97;;;4.03;100.00
3122;BME280;1571;52.524;14.104;2023-01-31T12:59:08;100629.47;;;3.93;100.00
3122;BME280;1571;52.524;14.104;2023-01-31T13:01:50;100620.31;;;3.80;100.00
3122;BME280;1571;52.524;14.104;2023-01-31T13:04:29;100617.19;;;3.70;100.00
3122;BME280;1571;52.524;14.104;2023-01-31T13:07:02;100619.31;;;3.59;100.00
3122;BME280;1571;52.524;14.104;2023-01-31T13:09:33;100599.69;;;3.69;100.00
3122;BME280;1571;52.524;14.104;2023-01-31T13:12:05;100612.34;;;3.58;100.00
3122;BME280;1571;52.524;14.104;2023-01-31T13:14:36;100612.81;;;3.69;100.00
3122;BME280;1571;52.524;14.104;2023-01-31T13:17:09;100598.97;;;3.65;100.00
3122;BME280;1571;52.524;14.104;2023-01-31T13:19:43;100600.28;;;3.53;100.00
3122;BME280;1571;52.524;14.104;2023-01-31T13:22:17;100608.19;;;3.52;100.00
3122;BME280;1571;52.524;14.104;2023-01-31T13:24:49;100603.38;;;3.65;100.00
3122;BME280;1571;52.524;14.104;2023-01-31T13:27:25;100598.00;;;3.68;100.00
3122;BME280;1571;52.524;14.104;2023-01-31T13:29:58;100595.25;;;3.71;100.00
3122;BME280;1571;52.524;14.104;2023-01-31T13:32:33;100600.56;;;3.69;100.00
3122;BME280;1571;52.524;14.104;2023-01-31T13:35:13;100610.09;;;3.72;100.00